createdAt,value
2022-09-26T00:01:32.795Z,18.50
2022-09-26T00:04:04.401Z,16.67
2022-09-26T00:06:31.222Z,18.33
2022-09-26T00:08:59.377Z,20.00
2022-09-26T00:11:30.863Z,15.30
2022-09-26T00:14:01.138Z,19.50
2022-09-26T00:16:28.395Z,19.50
2022-09-26T00:18:57.081Z,19.98
2022-09-26T00:21:25.647Z,18.73
2022-09-26T00:23:54.163Z,18.98
2022-09-26T00:26:23.375Z,19.20
2022-09-26T00:28:50.675Z,20.35
2022-09-26T00:31:29.244Z,17.90
2022-09-26T00:33:57.612Z,18.33
2022-09-26T00:36:37.062Z,16.15
2022-09-26T00:39:07.596Z,17.10
2022-09-26T00:41:35.907Z,16.98
2022-09-26T00:44:03.766Z,19.95
2022-09-26T00:46:46.128Z,18.75
2022-09-26T00:49:29.497Z,15.85
2022-09-26T00:52:20.414Z,17.00
2022-09-26T00:54:50.861Z,18.38
2022-09-26T00:57:30.470Z,14.70
2022-09-26T01:00:04.315Z,17.20
2022-09-26T01:02:31.293Z,22.90
2022-09-26T01:05:00.993Z,16.60
2022-09-26T01:07:31.224Z,16.00
2022-09-26T01:09:59.523Z,19.58
2022-09-26T01:12:26.337Z,19.35
2022-09-26T01:14:54.742Z,17.10
2022-09-26T01:17:24.410Z,16.85
2022-09-26T01:20:07.180Z,17.75
2022-09-26T01:23:02.217Z,22.20
2022-09-26T01:25:32.410Z,21.45
2022-09-26T01:28:41.885Z,18.67
2022-09-26T01:31:29.479Z,18.65
2022-09-26T01:34:32.704Z,19.15
2022-09-26T01:37:18.060Z,11.23
2022-09-26T01:40:13.998Z,19.60
2022-09-26T01:43:02.610Z,16.30
2022-09-26T01:45:53.523Z,22.05
2022-09-26T01:48:31.304Z,16.38
2022-09-26T01:51:09.873Z,17.45
2022-09-26T01:53:42.426Z,17.10
2022-09-26T01:56:19.778Z,16.75
2022-09-26T01:58:55.380Z,16.08
2022-09-26T02:01:25.931Z,16.52
2022-09-26T02:04:00.135Z,22.88
2022-09-26T02:06:44.724Z,18.20
2022-09-26T02:09:21.953Z,16.75
2022-09-26T02:11:51.031Z,14.77
2022-09-26T02:14:25.583Z,14.85
2022-09-26T02:16:58.059Z,15.73
2022-09-26T02:19:30.261Z,17.75
2022-09-26T02:21:58.965Z,19.13
2022-09-26T02:24:26.368Z,16.10
2022-09-26T02:26:53.767Z,17.38
2022-09-26T02:29:21.633Z,16.80
2022-09-26T02:31:57.478Z,20.60
2022-09-26T02:34:26.426Z,19.10
2022-09-26T02:36:56.123Z,14.20
2022-09-26T02:39:24.074Z,15.07
2022-09-26T02:42:09.191Z,18.45
2022-09-26T02:45:12.608Z,15.38
2022-09-26T02:48:12.857Z,14.38
2022-09-26T02:51:05.182Z,13.32
2022-09-26T02:53:49.454Z,14.05
2022-09-26T02:57:00.177Z,14.93
2022-09-26T02:59:57.613Z,13.73
2022-09-26T03:02:50.725Z,14.40
2022-09-26T03:05:23.412Z,14.27
2022-09-26T03:07:59.921Z,12.82
2022-09-26T03:10:28.523Z,17.90
2022-09-26T03:13:02.728Z,18.13
2022-09-26T03:15:33.318Z,14.05
2022-09-26T03:18:04.256Z,14.52
2022-09-26T03:20:31.511Z,12.02
2022-09-26T03:22:58.301Z,12.52
2022-09-26T03:25:27.787Z,14.02
2022-09-26T03:27:55.325Z,11.82
2022-09-26T03:30:24.893Z,12.27
2022-09-26T03:32:51.737Z,12.30
2022-09-26T03:35:18.904Z,13.63
2022-09-26T03:37:45.678Z,13.35
2022-09-26T03:40:13.333Z,12.82
2022-09-26T03:42:40.360Z,11.43
2022-09-26T03:45:13.309Z,12.20
2022-09-26T03:47:41.886Z,11.88
2022-09-26T03:50:09.678Z,10.63
2022-09-26T03:52:36.609Z,12.15
2022-09-26T03:55:04.819Z,13.43
2022-09-26T03:57:31.604Z,11.85
2022-09-26T03:59:58.433Z,13.20
2022-09-26T04:02:25.481Z,13.35
2022-09-26T04:04:53.806Z,12.02
2022-09-26T04:07:22.003Z,14.77
2022-09-26T04:09:48.830Z,12.35
2022-09-26T04:12:15.665Z,11.80
2022-09-26T04:14:43.477Z,13.65
2022-09-26T04:17:10.754Z,12.07
2022-09-26T04:19:37.618Z,11.65
2022-09-26T04:22:04.988Z,11.25
2022-09-26T04:24:32.835Z,13.90
2022-09-26T04:27:00.846Z,11.68
2022-09-26T04:29:29.065Z,13.00
2022-09-26T04:31:55.961Z,9.63
2022-09-26T04:34:27.246Z,11.35
2022-09-26T04:36:56.259Z,14.95
2022-09-26T04:39:25.544Z,12.95
2022-09-26T04:41:53.319Z,11.35
2022-09-26T04:44:20.411Z,14.35
2022-09-26T04:46:48.043Z,14.48
2022-09-26T04:49:14.954Z,12.27
2022-09-26T04:51:42.004Z,10.98
2022-09-26T04:54:10.250Z,11.15
2022-09-26T04:56:37.035Z,15.35
2022-09-26T04:59:03.982Z,11.13
2022-09-26T05:01:30.847Z,11.77
2022-09-26T05:03:58.381Z,12.25
2022-09-26T05:06:25.429Z,14.90
2022-09-26T05:08:52.263Z,10.80
2022-09-26T05:11:21.453Z,11.32
2022-09-26T05:13:53.775Z,12.27
2022-09-26T05:16:22.128Z,10.35
2022-09-26T05:18:52.494Z,23.02
2022-09-26T05:21:19.839Z,10.68
2022-09-26T05:24:05.635Z,13.60
2022-09-26T05:26:46.987Z,11.07
2022-09-26T05:29:14.270Z,14.05
2022-09-26T05:31:41.356Z,14.20
2022-09-26T05:34:15.455Z,11.13
2022-09-26T05:36:45.463Z,14.02
2022-09-26T05:39:31.231Z,14.07
2022-09-26T05:41:59.551Z,12.88
2022-09-26T05:44:27.519Z,9.82
2022-09-26T05:46:57.194Z,13.63
2022-09-26T05:49:24.222Z,14.35
2022-09-26T05:51:53.161Z,11.23
2022-09-26T05:54:21.136Z,10.35
2022-09-26T05:56:48.341Z,13.30
2022-09-26T05:59:15.423Z,7.65
2022-09-26T06:01:42.740Z,9.48
2022-09-26T06:04:11.300Z,7.90
2022-09-26T06:06:38.425Z,7.50
2022-09-26T06:09:07.303Z,9.75
2022-09-26T06:11:34.273Z,8.18
2022-09-26T06:14:01.259Z,11.65
2022-09-26T06:16:29.069Z,14.38
2022-09-26T06:18:56.158Z,10.52
2022-09-26T06:21:23.692Z,8.00
2022-09-26T06:23:50.599Z,12.57
2022-09-26T06:26:25.780Z,8.82
2022-09-26T06:29:00.498Z,11.48
2022-09-26T06:31:28.506Z,8.63
2022-09-26T06:33:55.751Z,9.30
2022-09-26T06:36:24.036Z,8.90
2022-09-26T06:38:51.605Z,6.97
2022-09-26T06:41:19.743Z,10.55
2022-09-26T06:43:47.520Z,9.70
2022-09-26T06:46:16.321Z,8.73
2022-09-26T06:48:43.676Z,9.45
2022-09-26T06:51:13.751Z,15.75
2022-09-26T06:53:41.259Z,8.23
2022-09-26T06:56:08.127Z,11.68
2022-09-26T06:58:35.059Z,11.52
2022-09-26T07:01:03.030Z,9.38
2022-09-26T07:03:30.037Z,7.47
2022-09-26T07:05:58.213Z,9.55
2022-09-26T07:08:43.693Z,9.55
2022-09-26T07:11:35.244Z,11.82
2022-09-26T07:14:02.034Z,7.70
2022-09-26T07:16:30.848Z,7.90
2022-09-26T07:18:58.178Z,11.85
2022-09-26T07:21:25.617Z,10.40
2022-09-26T07:23:58.662Z,13.02
2022-09-26T07:28:54.886Z,9.18
2022-09-26T07:31:26.215Z,9.15
2022-09-26T07:33:53.993Z,10.35
2022-09-26T07:36:21.077Z,11.52
2022-09-26T07:38:49.407Z,8.80
2022-09-26T07:41:17.725Z,12.02
2022-09-26T07:46:50.156Z,11.10
2022-09-26T07:49:35.809Z,8.35
2022-09-26T07:52:02.739Z,11.60
2022-09-26T07:54:29.557Z,7.78
2022-09-26T07:56:56.323Z,9.57
2022-09-26T07:59:23.260Z,9.77
2022-09-26T08:01:53.193Z,7.10
2022-09-26T08:04:20.173Z,10.13
2022-09-26T08:06:46.978Z,8.75
2022-09-26T08:09:14.990Z,7.35
2022-09-26T08:11:42.022Z,7.05
2022-09-26T08:14:09.037Z,8.13
2022-09-26T08:16:39.614Z,9.13
2022-09-26T08:19:07.833Z,7.53
2022-09-26T08:21:35.456Z,9.07
2022-09-26T08:24:02.539Z,13.93
2022-09-26T08:26:29.617Z,6.13
2022-09-26T08:28:56.439Z,6.30
2022-09-26T08:31:23.664Z,6.25
2022-09-26T08:33:50.465Z,3.25
2022-09-26T08:36:17.617Z,9.48
2022-09-26T08:38:44.590Z,8.73
2022-09-26T08:41:37.587Z,10.70
2022-09-26T08:44:26.490Z,5.40
2022-09-26T08:47:06.522Z,7.50
2022-09-26T08:50:07.454Z,4.80
2022-09-26T08:53:06.653Z,6.25
2022-09-26T08:55:40.733Z,5.30
2022-09-26T08:58:29.221Z,4.30
2022-09-26T09:01:02.781Z,6.13
2022-09-26T09:03:52.195Z,6.25
2022-09-26T09:06:19.584Z,5.50
2022-09-26T09:08:57.136Z,6.50
2022-09-26T09:12:15.245Z,9.35
2022-09-26T09:15:20.476Z,6.25
2022-09-26T09:18:13.448Z,5.28
2022-09-26T09:21:27.346Z,6.32
2022-09-26T09:24:15.704Z,7.18
2022-09-26T09:30:40.782Z,5.43
2022-09-26T09:33:17.382Z,6.10
2022-09-26T09:35:53.031Z,6.07
2022-09-26T09:38:26.052Z,5.25
2022-09-26T09:43:59.951Z,9.57
2022-09-26T09:46:38.326Z,9.75
2022-09-26T09:49:22.253Z,5.75
2022-09-26T09:52:20.138Z,7.60
2022-09-26T09:54:59.547Z,11.35
2022-09-26T09:57:54.062Z,5.32
2022-09-26T10:00:24.011Z,5.03
2022-09-26T10:03:01.110Z,6.10
2022-09-26T10:05:45.637Z,5.20
2022-09-26T10:08:14.291Z,4.07
2022-09-26T10:11:19.549Z,4.72
2022-09-26T10:13:53.207Z,11.07
2022-09-26T10:16:21.003Z,8.25
2022-09-26T10:19:06.093Z,7.80
2022-09-26T10:21:39.910Z,4.10
2022-09-26T10:24:22.322Z,5.53
2022-09-26T10:26:50.161Z,4.97
2022-09-26T10:29:22.407Z,7.97
2022-09-26T10:31:56.773Z,4.23
2022-09-26T10:34:33.948Z,7.40
2022-09-26T10:37:25.590Z,2.92
2022-09-26T10:40:13.981Z,4.30
2022-09-26T10:42:43.193Z,4.00
2022-09-26T10:45:29.378Z,6.13
2022-09-26T10:47:57.347Z,2.83
2022-09-26T10:50:27.810Z,3.25
2022-09-26T10:53:08.173Z,6.10
2022-09-26T10:55:44.213Z,5.05
2022-09-26T10:58:18.740Z,5.97
2022-09-26T11:00:51.545Z,7.63
2022-09-26T11:03:26.140Z,5.05
2022-09-26T11:05:57.713Z,5.82
2022-09-26T11:08:34.747Z,5.78
2022-09-26T11:11:05.347Z,4.30
2022-09-26T11:14:10.900Z,7.28
2022-09-26T11:16:43.534Z,4.38
2022-09-26T11:19:30.949Z,5.25
2022-09-26T11:22:30.204Z,2.85
2022-09-26T11:33:45.912Z,2.83
2022-09-26T11:36:39.728Z,5.30
2022-09-26T11:39:26.413Z,3.85
2022-09-26T11:42:31.407Z,4.20
2022-09-26T11:45:05.072Z,2.42
2022-09-26T11:47:59.571Z,2.90
2022-09-26T11:51:09.366Z,4.68
2022-09-26T11:53:58.310Z,2.92
2022-09-26T11:57:17.885Z,4.15
2022-09-26T12:00:24.158Z,3.55
2022-09-26T12:03:43.481Z,5.45
2022-09-26T12:07:02.004Z,3.50
2022-09-26T12:10:08.431Z,4.82
2022-09-26T12:13:19.093Z,5.10
2022-09-26T12:16:24.515Z,5.80
2022-09-26T12:19:38.420Z,6.90
2022-09-26T12:22:36.294Z,4.53
2022-09-26T12:25:10.989Z,4.80
2022-09-26T12:27:59.000Z,6.15
2022-09-26T12:30:33.319Z,6.15
2022-09-26T12:33:06.209Z,2.00
2022-09-26T12:35:49.721Z,6.10
2022-09-26T12:38:47.508Z,4.95
2022-09-26T12:41:29.309Z,5.97
2022-09-26T12:44:51.614Z,8.32
2022-09-26T12:47:46.554Z,3.53
2022-09-26T12:50:16.486Z,3.50
2022-09-26T12:52:55.300Z,3.58
2022-09-26T12:55:38.549Z,5.93
2022-09-26T12:58:28.277Z,4.93
2022-09-26T13:01:15.065Z,5.07
2022-09-26T13:04:25.108Z,4.75
2022-09-26T13:07:28.615Z,5.47
2022-09-26T13:10:09.955Z,3.85
2022-09-26T13:12:55.845Z,3.15
2022-09-26T13:15:34.878Z,5.45
2022-09-26T13:18:12.883Z,6.97
2022-09-26T13:20:43.687Z,4.53
2022-09-26T13:23:29.662Z,5.15
2022-09-26T13:26:20.074Z,3.63
2022-09-26T13:29:17.055Z,3.53
2022-09-26T13:32:23.683Z,2.25
2022-09-26T13:35:04.065Z,4.18
2022-09-26T13:38:06.204Z,3.55
2022-09-26T13:41:01.912Z,5.93
2022-09-26T13:43:49.825Z,8.10
2022-09-26T13:46:22.407Z,7.22
2022-09-26T13:49:16.070Z,3.97
2022-09-26T13:52:32.290Z,9.07
2022-09-26T13:55:13.686Z,6.70
2022-09-26T13:58:06.836Z,10.38
2022-09-26T14:00:48.951Z,2.80
2022-09-26T14:03:16.635Z,3.70
2022-09-26T14:05:50.779Z,6.05
2022-09-26T14:08:55.143Z,3.65
2022-09-26T14:11:33.713Z,9.07
2022-09-26T14:14:19.049Z,5.07
2022-09-26T14:16:47.467Z,10.63
2022-09-26T14:19:20.564Z,6.38
2022-09-26T14:24:43.410Z,5.15
2022-09-26T14:27:10.110Z,4.78
2022-09-26T14:29:50.334Z,7.97
2022-09-26T14:32:23.368Z,7.43
2022-09-26T14:37:25.435Z,4.93
2022-09-26T14:39:59.927Z,5.70
2022-09-26T14:42:36.892Z,9.00
2022-09-26T14:45:16.450Z,2.97
2022-09-26T14:47:54.118Z,7.47
2022-09-26T14:51:06.360Z,3.50
2022-09-26T14:53:47.928Z,5.82
2022-09-26T14:56:38.404Z,4.75
2022-09-26T14:59:40.104Z,2.30
2022-09-26T15:02:28.759Z,3.80
2022-09-26T15:05:28.091Z,9.38
2022-09-26T15:07:56.874Z,7.07
2022-09-26T15:10:35.479Z,4.57
2022-09-26T15:13:17.263Z,7.05
2022-09-26T15:15:56.357Z,7.35
2022-09-26T15:18:26.390Z,9.57
2022-09-26T15:21:33.579Z,6.82
2022-09-26T15:24:05.105Z,3.58
2022-09-26T15:26:37.029Z,5.90
2022-09-26T15:29:07.005Z,7.45
2022-09-26T15:31:47.485Z,8.40
2022-09-26T15:34:39.057Z,3.42
2022-09-26T15:37:19.086Z,10.18
2022-09-26T15:39:46.001Z,9.07
2022-09-26T15:42:38.790Z,3.00
2022-09-26T15:45:50.521Z,8.30
2022-09-26T15:48:20.402Z,13.55
2022-09-26T15:50:47.527Z,8.23
2022-09-26T15:53:39.536Z,6.78
2022-09-26T15:56:10.695Z,6.20
2022-09-26T15:58:46.487Z,9.18
2022-09-26T16:01:21.964Z,8.90
2022-09-26T16:04:03.342Z,3.80
2022-09-26T16:06:56.318Z,5.28
2022-09-26T16:09:38.618Z,3.53
2022-09-26T16:12:16.902Z,5.30
2022-09-26T16:15:03.570Z,3.95
2022-09-26T16:17:32.417Z,5.57
2022-09-26T16:20:24.544Z,4.22
2022-09-26T16:23:05.363Z,5.78
2022-09-26T16:25:33.355Z,3.67
2022-09-26T16:28:10.103Z,3.05
2022-09-26T16:31:01.105Z,5.00
2022-09-26T16:33:33.012Z,4.15
2022-09-26T16:36:14.998Z,7.72
2022-09-26T16:38:41.951Z,5.47
2022-09-26T16:41:56.195Z,4.70
2022-09-26T16:44:34.419Z,4.13
2022-09-26T16:47:05.468Z,5.95
2022-09-26T16:49:48.306Z,6.00
2022-09-26T16:52:34.290Z,5.50
2022-09-26T16:55:06.123Z,6.25
2022-09-26T16:57:37.943Z,8.98
2022-09-26T17:00:40.947Z,7.47
2022-09-26T17:03:30.651Z,10.40
2022-09-26T17:05:59.525Z,5.47
2022-09-26T17:08:27.889Z,4.00
2022-09-26T17:11:00.270Z,5.15
2022-09-26T17:13:32.852Z,4.18
2022-09-26T17:16:03.444Z,3.95
2022-09-26T17:18:33.001Z,3.65
2022-09-26T17:21:01.926Z,5.30
2022-09-26T17:23:45.817Z,4.63
2022-09-26T17:26:22.195Z,2.95
2022-09-26T17:28:50.242Z,5.82
2022-09-26T17:31:21.883Z,4.05
2022-09-26T17:33:52.653Z,5.07
2022-09-26T17:36:26.376Z,5.90
2022-09-26T17:38:56.739Z,4.03
2022-09-26T17:41:25.278Z,7.18
2022-09-26T17:43:59.338Z,8.43
2022-09-26T17:46:27.476Z,5.93
2022-09-26T17:48:56.142Z,6.35
2022-09-26T17:51:23.978Z,7.00
2022-09-26T17:53:52.391Z,8.75
2022-09-26T17:56:20.726Z,7.63
2022-09-26T17:58:49.084Z,5.60
2022-09-26T18:01:30.369Z,6.30
2022-09-26T18:04:02.447Z,6.10
2022-09-26T18:06:32.741Z,4.68
2022-09-26T18:09:07.372Z,9.90
2022-09-26T18:11:36.289Z,16.63
2022-09-26T18:14:05.729Z,15.30
2022-09-26T18:16:32.660Z,19.83
2022-09-26T18:19:04.694Z,12.70
2022-09-26T18:21:35.031Z,14.60
2022-09-26T18:24:06.651Z,11.98
2022-09-26T18:26:47.004Z,18.45
2022-09-26T18:29:31.357Z,46.50
2022-09-26T18:31:59.820Z,37.08
2022-09-26T18:34:27.001Z,32.95
2022-09-26T18:36:57.141Z,29.00
2022-09-26T18:39:25.105Z,12.32
2022-09-26T18:42:03.635Z,10.25
2022-09-26T18:44:35.116Z,27.92
2022-09-26T18:47:14.296Z,19.23
2022-09-26T18:49:46.504Z,11.65
2022-09-26T18:52:18.384Z,17.23
2022-09-26T18:55:06.897Z,12.75
2022-09-26T18:57:53.343Z,8.75
2022-09-26T19:00:20.241Z,7.28
2022-09-26T19:02:50.142Z,5.70
2022-09-26T19:05:17.724Z,8.23
2022-09-26T19:07:45.009Z,6.07
2022-09-26T19:10:20.109Z,4.43
2022-09-26T19:12:47.036Z,8.93
2022-09-26T19:15:16.005Z,14.40
2022-09-26T19:17:43.460Z,12.75
2022-09-26T19:20:10.494Z,11.52
2022-09-26T19:22:37.489Z,9.25
2022-09-26T19:25:04.809Z,8.50
2022-09-26T19:27:42.389Z,14.45
2022-09-26T19:30:22.369Z,6.78
2022-09-26T19:32:53.085Z,10.50
2022-09-26T19:35:31.717Z,19.25
2022-09-26T19:37:59.964Z,12.57
2022-09-26T19:40:29.095Z,23.45
2022-09-26T19:42:57.258Z,17.85
2022-09-26T19:45:25.927Z,8.68
2022-09-26T19:47:55.730Z,12.15
2022-09-26T19:50:28.005Z,13.40
2022-09-26T19:52:58.510Z,12.00
2022-09-26T19:55:29.699Z,12.50
2022-09-26T19:58:20.448Z,11.70
2022-09-26T20:01:03.446Z,8.43
2022-09-26T20:03:40.170Z,10.77
2022-09-26T20:06:27.350Z,5.40
2022-09-26T20:09:02.120Z,7.95
2022-09-26T20:11:29.179Z,5.85
2022-09-26T20:14:14.456Z,7.53
2022-09-26T20:16:42.632Z,9.18
2022-09-26T20:19:17.029Z,7.63
2022-09-26T20:21:44.771Z,8.57
2022-09-26T20:24:19.732Z,6.28
2022-09-26T20:26:48.074Z,6.93
2022-09-26T20:29:16.490Z,9.27
2022-09-26T20:31:43.662Z,8.38
2022-09-26T20:34:12.199Z,5.97
2022-09-26T20:36:51.437Z,5.78
2022-09-26T20:39:26.688Z,7.13
2022-09-26T20:41:53.772Z,6.53
2022-09-26T20:44:28.758Z,9.20
2022-09-26T20:47:01.492Z,7.07
2022-09-26T20:49:46.325Z,5.45
2022-09-26T20:52:21.848Z,6.57
2022-09-26T20:54:49.319Z,9.35
2022-09-26T20:57:17.437Z,5.43
2022-09-26T20:59:44.293Z,7.85
2022-09-26T21:02:23.523Z,6.47
2022-09-26T21:04:51.713Z,7.82
2022-09-26T21:07:19.109Z,6.50
2022-09-26T21:09:46.037Z,12.30
2022-09-26T21:12:14.883Z,8.43
2022-09-26T21:14:42.477Z,9.00
2022-09-26T21:17:29.399Z,6.05
2022-09-26T21:19:56.445Z,5.07
2022-09-26T21:22:27.126Z,7.30
2022-09-26T21:24:54.247Z,7.75
2022-09-26T21:27:21.066Z,9.57
2022-09-26T21:29:50.164Z,5.80
2022-09-26T21:32:20.595Z,5.00
2022-09-26T21:35:13.943Z,10.45
2022-09-26T21:37:43.589Z,7.47
2022-09-26T21:40:10.898Z,5.22
2022-09-26T21:42:38.138Z,7.28
2022-09-26T21:45:09.840Z,8.20
2022-09-26T21:47:37.566Z,8.52
2022-09-26T21:50:07.468Z,9.70
2022-09-26T21:52:42.843Z,5.85
2022-09-26T21:55:29.619Z,6.47
2022-09-26T21:58:03.359Z,6.40
2022-09-26T22:00:30.264Z,6.07
2022-09-26T22:03:00.838Z,9.43
2022-09-26T22:05:27.815Z,6.10
2022-09-26T22:07:55.888Z,6.05
2022-09-26T22:10:23.060Z,8.60
2022-09-26T22:12:52.354Z,7.90
2022-09-26T22:15:20.300Z,8.32
2022-09-26T22:17:47.623Z,4.80
2022-09-26T22:20:14.959Z,11.50
2022-09-26T22:22:42.144Z,6.57
2022-09-26T22:25:09.767Z,5.85
2022-09-26T22:27:37.207Z,6.47
2022-09-26T22:30:05.836Z,10.00
2022-09-26T22:32:33.397Z,6.60
2022-09-26T22:35:00.487Z,6.15
2022-09-26T22:37:28.144Z,9.27
2022-09-26T22:39:55.212Z,4.88
2022-09-26T22:42:22.429Z,6.10
2022-09-26T22:44:49.603Z,10.75
2022-09-26T22:47:16.642Z,7.70
2022-09-26T22:49:43.781Z,9.48
2022-09-26T22:52:11.058Z,10.07
2022-09-26T22:54:38.162Z,9.48
2022-09-26T22:57:05.799Z,7.28
2022-09-26T22:59:32.887Z,6.63
2022-09-26T23:02:00.126Z,7.13
2022-09-26T23:04:47.016Z,6.57
2022-09-26T23:07:17.120Z,8.38
2022-09-26T23:09:44.682Z,8.68
2022-09-26T23:12:12.968Z,8.20
2022-09-26T23:14:40.482Z,10.00
2022-09-26T23:17:07.782Z,6.45
2022-09-26T23:19:34.905Z,7.13
2022-09-26T23:22:02.084Z,8.77
2022-09-26T23:24:29.120Z,11.02
2022-09-26T23:27:00.143Z,6.45
2022-09-26T23:29:27.434Z,7.63
2022-09-26T23:31:55.010Z,5.82
2022-09-26T23:34:22.361Z,7.05
2022-09-26T23:36:49.326Z,6.68
2022-09-26T23:39:17.693Z,10.73
2022-09-26T23:41:44.623Z,8.20
2022-09-26T23:44:11.473Z,11.90
2022-09-26T23:46:38.931Z,7.50
2022-09-26T23:49:06.096Z,6.85
2022-09-26T23:51:33.096Z,6.53
2022-09-26T23:54:00.085Z,5.70
2022-09-26T23:56:27.075Z,8.70
2022-09-26T23:58:57.228Z,6.13
